sensor_id;sensor_type;location;lat;lon;timestamp;P1;durP1;ratioP1;P2;durP2;ratioP2
4409;SDS011;2218;51.408;7.208;2022-09-25T00:01:01;0.80;;;0.80;;
4409;SDS011;2218;51.408;7.208;2022-09-25T00:03:30;0.90;;;0.80;;
4409;SDS011;2218;51.408;7.208;2022-09-25T00:06:03;0.70;;;0.50;;
4409;SDS011;2218;51.408;7.208;2022-09-25T00:08:33;0.70;;;0.50;;
4409;SDS011;2218;51.408;7.208;2022-09-25T00:11:04;0.80;;;0.70;;
4409;SDS011;2218;51.408;7.208;2022-09-25T00:13:33;0.70;;;0.60;;
4409;SDS011;2218;51.408;7.208;2022-09-25T00:16:02;0.70;;;0.50;;
4409;SDS011;2218;51.408;7.208;2022-09-25T00:18:30;0.80;;;0.63;;
4409;SDS011;2218;51.408;7.208;2022-09-25T00:21:16;0.70;;;0.60;;
4409;SDS011;2218;51.408;7.208;2022-09-25T00:23:44;0.70;;;0.60;;
4409;SDS011;2218;51.408;7.208;2022-09-25T00:26:12;0.80;;;0.70;;
4409;SDS011;2218;51.408;7.208;2022-09-25T00:28:42;0.70;;;0.53;;
4409;SDS011;2218;51.408;7.208;2022-09-25T00:31:09;0.70;;;0.53;;
4409;SDS011;2218;51.408;7.208;2022-09-25T00:33:39;0.70;;;0.60;;
4409;SDS011;2218;51.408;7.208;2022-09-25T00:36:07;0.70;;;0.50;;
4409;SDS011;2218;51.408;7.208;2022-09-25T00:38:37;0.70;;;0.60;;
4409;SDS011;2218;51.408;7.208;2022-09-25T00:41:05;0.70;;;0.53;;
4409;SDS011;2218;51.408;7.208;2022-09-25T00:43:34;0.70;;;0.60;;
4409;SDS011;2218;51.408;7.208;2022-09-25T00:46:05;0.70;;;0.60;;
4409;SDS011;2218;51.408;7.208;2022-09-25T00:48:40;0.70;;;0.60;;
4409;SDS011;2218;51.408;7.208;2022-09-25T00:51:15;0.60;;;0.50;;
4409;SDS011;2218;51.408;7.208;2022-09-25T00:53:46;0.70;;;0.50;;
4409;SDS011;2218;51.408;7.208;2022-09-25T00:56:15;0.70;;;0.50;;
4409;SDS011;2218;51.408;7.208;2022-09-25T00:58:42;0.67;;;0.50;;
4409;SDS011;2218;51.408;7.208;2022-09-25T01:01:09;0.70;;;0.50;;
4409;SDS011;2218;51.408;7.208;2022-09-25T01:03:37;0.70;;;0.50;;
4409;SDS011;2218;51.408;7.208;2022-09-25T01:06:06;0.70;;;0.60;;
4409;SDS011;2218;51.408;7.208;2022-09-25T01:08:34;0.70;;;0.50;;
4409;SDS011;2218;51.408;7.208;2022-09-25T01:11:04;0.70;;;0.50;;
4409;SDS011;2218;51.408;7.208;2022-09-25T01:13:31;0.70;;;0.50;;
4409;SDS011;2218;51.408;7.208;2022-09-25T01:16:02;0.70;;;0.50;;
4409;SDS011;2218;51.408;7.208;2022-09-25T01:18:43;0.70;;;0.60;;
4409;SDS011;2218;51.408;7.208;2022-09-25T01:21:32;0.70;;;0.50;;
4409;SDS011;2218;51.408;7.208;2022-09-25T01:27:36;0.70;;;0.50;;
4409;SDS011;2218;51.408;7.208;2022-09-25T01:30:18;0.70;;;0.60;;
4409;SDS011;2218;51.408;7.208;2022-09-25T01:32:53;0.70;;;0.50;;
4409;SDS011;2218;51.408;7.208;2022-09-25T01:35:30;0.70;;;0.60;;
4409;SDS011;2218;51.408;7.208;2022-09-25T01:38:12;0.70;;;0.50;;
4409;SDS011;2218;51.408;7.208;2022-09-25T01:40:51;0.70;;;0.50;;
4409;SDS011;2218;51.408;7.208;2022-09-25T01:43:29;0.70;;;0.50;;
4409;SDS011;2218;51.408;7.208;2022-09-25T01:46:03;0.70;;;0.50;;
4409;SDS011;2218;51.408;7.208;2022-09-25T01:48:39;0.60;;;0.40;;
4409;SDS011;2218;51.408;7.208;2022-09-25T01:51:13;0.70;;;0.50;;
4409;SDS011;2218;51.408;7.208;2022-09-25T01:53:47;0.70;;;0.50;;
4409;SDS011;2218;51.408;7.208;2022-09-25T01:56:22;0.70;;;0.50;;
4409;SDS011;2218;51.408;7.208;2022-09-25T01:58:57;0.70;;;0.57;;
4409;SDS011;2218;51.408;7.208;2022-09-25T02:01:31;0.70;;;0.50;;
4409;SDS011;2218;51.408;7.208;2022-09-25T02:04:04;0.70;;;0.50;;
4409;SDS011;2218;51.408;7.208;2022-09-25T02:06:37;0.70;;;0.50;;
4409;SDS011;2218;51.408;7.208;2022-09-25T02:09:11;0.70;;;0.50;;
4409;SDS011;2218;51.408;7.208;2022-09-25T02:11:49;0.70;;;0.50;;
4409;SDS011;2218;51.408;7.208;2022-09-25T02:14:22;0.70;;;0.50;;
4409;SDS011;2218;51.408;7.208;2022-09-25T02:17:00;0.70;;;0.50;;
4409;SDS011;2218;51.408;7.208;2022-09-25T02:19:32;0.70;;;0.50;;
4409;SDS011;2218;51.408;7.208;2022-09-25T02:22:16;0.70;;;0.50;;
4409;SDS011;2218;51.408;7.208;2022-09-25T02:24:49;0.70;;;0.60;;
4409;SDS011;2218;51.408;7.208;2022-09-25T02:27:21;0.70;;;0.50;;
4409;SDS011;2218;51.408;7.208;2022-09-25T02:29:51;0.60;;;0.40;;
4409;SDS011;2218;51.408;7.208;2022-09-25T02:32:21;0.70;;;0.50;;
4409;SDS011;2218;51.408;7.208;2022-09-25T02:34:53;0.70;;;0.50;;
4409;SDS011;2218;51.408;7.208;2022-09-25T02:37:21;0.70;;;0.50;;
4409;SDS011;2218;51.408;7.208;2022-09-25T02:39:51;0.70;;;0.50;;
4409;SDS011;2218;51.408;7.208;2022-09-25T02:42:25;0.70;;;0.50;;
4409;SDS011;2218;51.408;7.208;2022-09-25T02:45:09;0.70;;;0.50;;
4409;SDS011;2218;51.408;7.208;2022-09-25T02:47:53;0.70;;;0.50;;
4409;SDS011;2218;51.408;7.208;2022-09-25T02:50:34;0.70;;;0.40;;
4409;SDS011;2218;51.408;7.208;2022-09-25T02:53:12;0.70;;;0.40;;
4409;SDS011;2218;51.408;7.208;2022-09-25T02:55:47;0.70;;;0.47;;
4409;SDS011;2218;51.408;7.208;2022-09-25T02:58:21;0.70;;;0.50;;
4409;SDS011;2218;51.408;7.208;2022-09-25T03:00:54;0.70;;;0.40;;
4409;SDS011;2218;51.408;7.208;2022-09-25T03:03:27;0.70;;;0.50;;
4409;SDS011;2218;51.408;7.208;2022-09-25T03:05:56;0.60;;;0.40;;
4409;SDS011;2218;51.408;7.208;2022-09-25T03:08:25;0.70;;;0.50;;
4409;SDS011;2218;51.408;7.208;2022-09-25T03:11:07;0.70;;;0.40;;
4409;SDS011;2218;51.408;7.208;2022-09-25T03:13:37;0.70;;;0.50;;
4409;SDS011;2218;51.408;7.208;2022-09-25T03:16:06;0.70;;;0.50;;
4409;SDS011;2218;51.408;7.208;2022-09-25T03:18:40;0.70;;;0.40;;
4409;SDS011;2218;51.408;7.208;2022-09-25T03:21:07;0.70;;;0.40;;
4409;SDS011;2218;51.408;7.208;2022-09-25T03:23:34;0.70;;;0.50;;
4409;SDS011;2218;51.408;7.208;2022-09-25T03:26:01;0.70;;;0.40;;
4409;SDS011;2218;51.408;7.208;2022-09-25T03:28:30;0.63;;;0.40;;
4409;SDS011;2218;51.408;7.208;2022-09-25T03:30:57;0.60;;;0.40;;
4409;SDS011;2218;51.408;7.208;2022-09-25T03:33:27;0.70;;;0.53;;
4409;SDS011;2218;51.408;7.208;2022-09-25T03:36:05;0.70;;;0.50;;
4409;SDS011;2218;51.408;7.208;2022-09-25T03:38:35;0.67;;;0.40;;
4409;SDS011;2218;51.408;7.208;2022-09-25T03:41:03;0.60;;;0.40;;
4409;SDS011;2218;51.408;7.208;2022-09-25T03:43:33;0.60;;;0.40;;
4409;SDS011;2218;51.408;7.208;2022-09-25T03:46:01;0.70;;;0.40;;
4409;SDS011;2218;51.408;7.208;2022-09-25T03:48:28;0.70;;;0.40;;
4409;SDS011;2218;51.408;7.208;2022-09-25T03:50:56;0.70;;;0.40;;
4409;SDS011;2218;51.408;7.208;2022-09-25T03:53:26;0.70;;;0.40;;
4409;SDS011;2218;51.408;7.208;2022-09-25T03:55:55;0.70;;;0.47;;
4409;SDS011;2218;51.408;7.208;2022-09-25T03:58:22;0.70;;;0.50;;
4409;SDS011;2218;51.408;7.208;2022-09-25T04:00:49;0.60;;;0.40;;
4409;SDS011;2218;51.408;7.208;2022-09-25T04:03:19;0.70;;;0.43;;
4409;SDS011;2218;51.408;7.208;2022-09-25T04:05:47;0.70;;;0.40;;
4409;SDS011;2218;51.408;7.208;2022-09-25T04:08:14;0.70;;;0.40;;
4409;SDS011;2218;51.408;7.208;2022-09-25T04:10:43;0.70;;;0.40;;
4409;SDS011;2218;51.408;7.208;2022-09-25T04:13:10;0.70;;;0.40;;
4409;SDS011;2218;51.408;7.208;2022-09-25T04:15:37;0.70;;;0.47;;
4409;SDS011;2218;51.408;7.208;2022-09-25T04:18:06;0.70;;;0.60;;
4409;SDS011;2218;51.408;7.208;2022-09-25T04:20:34;0.60;;;0.40;;
4409;SDS011;2218;51.408;7.208;2022-09-25T04:23:02;0.60;;;0.40;;
4409;SDS011;2218;51.408;7.208;2022-09-25T04:25:29;0.87;;;0.50;;
4409;SDS011;2218;51.408;7.208;2022-09-25T04:27:58;0.63;;;0.43;;
4409;SDS011;2218;51.408;7.208;2022-09-25T04:30:25;0.70;;;0.40;;
4409;SDS011;2218;51.408;7.208;2022-09-25T04:32:54;0.70;;;0.40;;
4409;SDS011;2218;51.408;7.208;2022-09-25T04:35:39;0.63;;;0.40;;
4409;SDS011;2218;51.408;7.208;2022-09-25T04:38:06;0.70;;;0.47;;
4409;SDS011;2218;51.408;7.208;2022-09-25T04:40:34;0.60;;;0.40;;
4409;SDS011;2218;51.408;7.208;2022-09-25T04:43:04;0.70;;;0.40;;
4409;SDS011;2218;51.408;7.208;2022-09-25T04:45:33;0.63;;;0.40;;
4409;SDS011;2218;51.408;7.208;2022-09-25T04:48:01;0.60;;;0.40;;
4409;SDS011;2218;51.408;7.208;2022-09-25T04:50:29;0.60;;;0.40;;
4409;SDS011;2218;51.408;7.208;2022-09-25T04:53:00;0.70;;;0.40;;
4409;SDS011;2218;51.408;7.208;2022-09-25T04:55:28;0.60;;;0.40;;
4409;SDS011;2218;51.408;7.208;2022-09-25T04:57:55;0.70;;;0.50;;
4409;SDS011;2218;51.408;7.208;2022-09-25T05:00:26;0.60;;;0.40;;
4409;SDS011;2218;51.408;7.208;2022-09-25T05:02:57;0.60;;;0.40;;
4409;SDS011;2218;51.408;7.208;2022-09-25T05:05:24;0.70;;;0.40;;
4409;SDS011;2218;51.408;7.208;2022-09-25T05:07:52;0.70;;;0.40;;
4409;SDS011;2218;51.408;7.208;2022-09-25T05:10:21;0.60;;;0.30;;
4409;SDS011;2218;51.408;7.208;2022-09-25T05:12:53;0.60;;;0.40;;
4409;SDS011;2218;51.408;7.208;2022-09-25T05:15:21;0.60;;;0.40;;
4409;SDS011;2218;51.408;7.208;2022-09-25T05:17:49;0.70;;;0.50;;
4409;SDS011;2218;51.408;7.208;2022-09-25T05:20:24;0.70;;;0.40;;
4409;SDS011;2218;51.408;7.208;2022-09-25T05:22:52;0.60;;;0.40;;
4409;SDS011;2218;51.408;7.208;2022-09-25T05:25:20;0.60;;;0.40;;
4409;SDS011;2218;51.408;7.208;2022-09-25T05:27:49;0.60;;;0.40;;
4409;SDS011;2218;51.408;7.208;2022-09-25T05:30:22;0.70;;;0.40;;
4409;SDS011;2218;51.408;7.208;2022-09-25T05:32:51;0.60;;;0.40;;
4409;SDS011;2218;51.408;7.208;2022-09-25T05:35:19;0.70;;;0.40;;
4409;SDS011;2218;51.408;7.208;2022-09-25T05:37:48;0.70;;;0.50;;
4409;SDS011;2218;51.408;7.208;2022-09-25T05:40:16;0.70;;;0.40;;
4409;SDS011;2218;51.408;7.208;2022-09-25T05:42:45;0.60;;;0.40;;
4409;SDS011;2218;51.408;7.208;2022-09-25T05:45:13;0.70;;;0.40;;
4409;SDS011;2218;51.408;7.208;2022-09-25T05:47:41;0.70;;;0.43;;
4409;SDS011;2218;51.408;7.208;2022-09-25T05:50:11;0.70;;;0.50;;
4409;SDS011;2218;51.408;7.208;2022-09-25T05:52:41;0.80;;;0.43;;
4409;SDS011;2218;51.408;7.208;2022-09-25T05:55:08;0.60;;;0.40;;
4409;SDS011;2218;51.408;7.208;2022-09-25T05:57:35;0.73;;;0.40;;
4409;SDS011;2218;51.408;7.208;2022-09-25T06:00:04;0.63;;;0.40;;
4409;SDS011;2218;51.408;7.208;2022-09-25T06:02:39;0.60;;;0.40;;
4409;SDS011;2218;51.408;7.208;2022-09-25T06:05:06;0.60;;;0.40;;
4409;SDS011;2218;51.408;7.208;2022-09-25T06:07:35;0.80;;;0.50;;
4409;SDS011;2218;51.408;7.208;2022-09-25T06:10:02;0.60;;;0.40;;
4409;SDS011;2218;51.408;7.208;2022-09-25T06:12:30;0.60;;;0.40;;
4409;SDS011;2218;51.408;7.208;2022-09-25T06:14:57;0.70;;;0.50;;
4409;SDS011;2218;51.408;7.208;2022-09-25T06:17:25;0.70;;;0.50;;
4409;SDS011;2218;51.408;7.208;2022-09-25T06:19:52;0.60;;;0.40;;
4409;SDS011;2218;51.408;7.208;2022-09-25T06:22:19;0.70;;;0.40;;
4409;SDS011;2218;51.408;7.208;2022-09-25T06:24:47;0.70;;;0.40;;
4409;SDS011;2218;51.408;7.208;2022-09-25T06:27:14;0.60;;;0.40;;
4409;SDS011;2218;51.408;7.208;2022-09-25T06:29:40;0.60;;;0.40;;
4409;SDS011;2218;51.408;7.208;2022-09-25T06:32:07;0.70;;;0.40;;
4409;SDS011;2218;51.408;7.208;2022-09-25T06:34:34;0.60;;;0.40;;
4409;SDS011;2218;51.408;7.208;2022-09-25T06:37:01;0.60;;;0.40;;
4409;SDS011;2218;51.408;7.208;2022-09-25T06:39:28;0.73;;;0.40;;
4409;SDS011;2218;51.408;7.208;2022-09-25T06:41:58;0.60;;;0.40;;
4409;SDS011;2218;51.408;7.208;2022-09-25T06:44:25;0.70;;;0.40;;
4409;SDS011;2218;51.408;7.208;2022-09-25T06:46:52;0.70;;;0.40;;
4409;SDS011;2218;51.408;7.208;2022-09-25T06:49:19;0.60;;;0.37;;
4409;SDS011;2218;51.408;7.208;2022-09-25T06:51:46;0.60;;;0.40;;
4409;SDS011;2218;51.408;7.208;2022-09-25T06:54:15;0.70;;;0.40;;
4409;SDS011;2218;51.408;7.208;2022-09-25T06:56:42;0.60;;;0.40;;
4409;SDS011;2218;51.408;7.208;2022-09-25T06:59:10;0.60;;;0.40;;
4409;SDS011;2218;51.408;7.208;2022-09-25T07:01:37;0.80;;;0.50;;
4409;SDS011;2218;51.408;7.208;2022-09-25T07:04:06;0.60;;;0.40;;
4409;SDS011;2218;51.408;7.208;2022-09-25T07:06:32;0.60;;;0.40;;
4409;SDS011;2218;51.408;7.208;2022-09-25T07:09:01;0.60;;;0.40;;
4409;SDS011;2218;51.408;7.208;2022-09-25T07:11:28;0.60;;;0.40;;
4409;SDS011;2218;51.408;7.208;2022-09-25T07:13:56;0.60;;;0.40;;
4409;SDS011;2218;51.408;7.208;2022-09-25T07:16:25;0.70;;;0.40;;
4409;SDS011;2218;51.408;7.208;2022-09-25T07:18:54;0.60;;;0.40;;
4409;SDS011;2218;51.408;7.208;2022-09-25T07:21:23;0.60;;;0.40;;
4409;SDS011;2218;51.408;7.208;2022-09-25T07:23:53;0.70;;;0.40;;
4409;SDS011;2218;51.408;7.208;2022-09-25T07:26:22;0.70;;;0.40;;
4409;SDS011;2218;51.408;7.208;2022-09-25T07:28:52;0.70;;;0.40;;
4409;SDS011;2218;51.408;7.208;2022-09-25T07:31:21;0.60;;;0.30;;
4409;SDS011;2218;51.408;7.208;2022-09-25T07:33:53;0.60;;;0.40;;
4409;SDS011;2218;51.408;7.208;2022-09-25T07:36:20;0.80;;;0.40;;
4409;SDS011;2218;51.408;7.208;2022-09-25T07:38:48;0.60;;;0.40;;
4409;SDS011;2218;51.408;7.208;2022-09-25T07:41:15;0.60;;;0.40;;
4409;SDS011;2218;51.408;7.208;2022-09-25T07:43:43;0.60;;;0.40;;
4409;SDS011;2218;51.408;7.208;2022-09-25T07:46:10;0.73;;;0.40;;
4409;SDS011;2218;51.408;7.208;2022-09-25T07:48:39;0.60;;;0.40;;
4409;SDS011;2218;51.408;7.208;2022-09-25T07:51:06;0.60;;;0.40;;
4409;SDS011;2218;51.408;7.208;2022-09-25T07:53:36;0.60;;;0.40;;
4409;SDS011;2218;51.408;7.208;2022-09-25T07:56:03;0.60;;;0.40;;
4409;SDS011;2218;51.408;7.208;2022-09-25T07:58:30;0.60;;;0.40;;
4409;SDS011;2218;51.408;7.208;2022-09-25T08:00:59;0.70;;;0.40;;
4409;SDS011;2218;51.408;7.208;2022-09-25T08:03:29;0.60;;;0.40;;
4409;SDS011;2218;51.408;7.208;2022-09-25T08:05:57;0.60;;;0.40;;
4409;SDS011;2218;51.408;7.208;2022-09-25T08:08:26;0.60;;;0.40;;
4409;SDS011;2218;51.408;7.208;2022-09-25T08:10:55;0.60;;;0.40;;
4409;SDS011;2218;51.408;7.208;2022-09-25T08:13:26;0.60;;;0.40;;
4409;SDS011;2218;51.408;7.208;2022-09-25T08:15:54;0.70;;;0.40;;
4409;SDS011;2218;51.408;7.208;2022-09-25T08:18:21;0.60;;;0.40;;
4409;SDS011;2218;51.408;7.208;2022-09-25T08:20:48;0.60;;;0.40;;
4409;SDS011;2218;51.408;7.208;2022-09-25T08:23:17;0.60;;;0.40;;
4409;SDS011;2218;51.408;7.208;2022-09-25T08:25:46;0.70;;;0.40;;
4409;SDS011;2218;51.408;7.208;2022-09-25T08:28:13;0.60;;;0.40;;
4409;SDS011;2218;51.408;7.208;2022-09-25T08:30:42;0.60;;;0.40;;
4409;SDS011;2218;51.408;7.208;2022-09-25T08:33:09;0.70;;;0.40;;
4409;SDS011;2218;51.408;7.208;2022-09-25T08:35:37;0.60;;;0.40;;
4409;SDS011;2218;51.408;7.208;2022-09-25T08:38:05;0.60;;;0.40;;
4409;SDS011;2218;51.408;7.208;2022-09-25T08:40:33;0.70;;;0.40;;
4409;SDS011;2218;51.408;7.208;2022-09-25T08:43:13;0.60;;;0.40;;
4409;SDS011;2218;51.408;7.208;2022-09-25T08:45:47;0.60;;;0.40;;
4409;SDS011;2218;51.408;7.208;2022-09-25T08:48:34;0.80;;;0.40;;
4409;SDS011;2218;51.408;7.208;2022-09-25T08:51:25;0.60;;;0.37;;
4409;SDS011;2218;51.408;7.208;2022-09-25T08:53:53;0.70;;;0.40;;
4409;SDS011;2218;51.408;7.208;2022-09-25T08:56:21;0.60;;;0.40;;
4409;SDS011;2218;51.408;7.208;2022-09-25T08:58:50;0.60;;;0.40;;
4409;SDS011;2218;51.408;7.208;2022-09-25T09:01:21;0.80;;;0.40;;
4409;SDS011;2218;51.408;7.208;2022-09-25T09:03:53;0.60;;;0.40;;
4409;SDS011;2218;51.408;7.208;2022-09-25T09:06:30;0.63;;;0.40;;
4409;SDS011;2218;51.408;7.208;2022-09-25T09:09:00;0.70;;;0.50;;
4409;SDS011;2218;51.408;7.208;2022-09-25T09:11:37;0.60;;;0.30;;
4409;SDS011;2218;51.408;7.208;2022-09-25T09:14:10;0.63;;;0.40;;
4409;SDS011;2218;51.408;7.208;2022-09-25T09:16:44;0.70;;;0.43;;
4409;SDS011;2218;51.408;7.208;2022-09-25T09:19:18;0.60;;;0.40;;
4409;SDS011;2218;51.408;7.208;2022-09-25T09:21:47;0.60;;;0.40;;
4409;SDS011;2218;51.408;7.208;2022-09-25T09:24:33;0.60;;;0.40;;
4409;SDS011;2218;51.408;7.208;2022-09-25T09:27:27;0.70;;;0.40;;
4409;SDS011;2218;51.408;7.208;2022-09-25T09:30:22;0.70;;;0.50;;
4409;SDS011;2218;51.408;7.208;2022-09-25T09:33:06;0.60;;;0.40;;
4409;SDS011;2218;51.408;7.208;2022-09-25T09:35:50;0.60;;;0.40;;
4409;SDS011;2218;51.408;7.208;2022-09-25T09:38:35;0.60;;;0.40;;
4409;SDS011;2218;51.408;7.208;2022-09-25T09:41:15;0.60;;;0.40;;
4409;SDS011;2218;51.408;7.208;2022-09-25T09:44:05;0.60;;;0.40;;
4409;SDS011;2218;51.408;7.208;2022-09-25T09:46:58;0.60;;;0.40;;
4409;SDS011;2218;51.408;7.208;2022-09-25T09:49:48;0.70;;;0.40;;
4409;SDS011;2218;51.408;7.208;2022-09-25T09:52:24;0.70;;;0.40;;
4409;SDS011;2218;51.408;7.208;2022-09-25T09:55:00;0.60;;;0.40;;
4409;SDS011;2218;51.408;7.208;2022-09-25T09:57:46;0.70;;;0.40;;
4409;SDS011;2218;51.408;7.208;2022-09-25T10:00:19;0.60;;;0.40;;
4409;SDS011;2218;51.408;7.208;2022-09-25T10:02:49;0.60;;;0.40;;
4409;SDS011;2218;51.408;7.208;2022-09-25T10:05:23;0.70;;;0.40;;
4409;SDS011;2218;51.408;7.208;2022-09-25T10:07:55;0.60;;;0.40;;
4409;SDS011;2218;51.408;7.208;2022-09-25T10:10:26;0.60;;;0.40;;
4409;SDS011;2218;51.408;7.208;2022-09-25T10:13:02;0.60;;;0.40;;
4409;SDS011;2218;51.408;7.208;2022-09-25T10:15:41;0.60;;;0.40;;
4409;SDS011;2218;51.408;7.208;2022-09-25T10:18:15;0.70;;;0.40;;
4409;SDS011;2218;51.408;7.208;2022-09-25T10:20:46;0.70;;;0.40;;
4409;SDS011;2218;51.408;7.208;2022-09-25T10:26:21;0.70;;;0.40;;
4409;SDS011;2218;51.408;7.208;2022-09-25T10:28:52;0.77;;;0.40;;
4409;SDS011;2218;51.408;7.208;2022-09-25T10:31:23;0.70;;;0.50;;
4409;SDS011;2218;51.408;7.208;2022-09-25T10:33:57;0.60;;;0.30;;
4409;SDS011;2218;51.408;7.208;2022-09-25T10:36:29;0.60;;;0.40;;
4409;SDS011;2218;51.408;7.208;2022-09-25T10:39:21;0.60;;;0.40;;
4409;SDS011;2218;51.408;7.208;2022-09-25T10:41:55;0.60;;;0.40;;
4409;SDS011;2218;51.408;7.208;2022-09-25T10:44:28;0.70;;;0.40;;
4409;SDS011;2218;51.408;7.208;2022-09-25T10:47:20;0.70;;;0.40;;
4409;SDS011;2218;51.408;7.208;2022-09-25T10:50:15;0.60;;;0.40;;
4409;SDS011;2218;51.408;7.208;2022-09-25T10:52:46;0.60;;;0.40;;
4409;SDS011;2218;51.408;7.208;2022-09-25T10:55:21;0.60;;;0.30;;
4409;SDS011;2218;51.408;7.208;2022-09-25T10:58:04;0.60;;;0.37;;
4409;SDS011;2218;51.408;7.208;2022-09-25T11:00:51;0.60;;;0.40;;
4409;SDS011;2218;51.408;7.208;2022-09-25T11:03:25;0.60;;;0.40;;
4409;SDS011;2218;51.408;7.208;2022-09-25T11:05:56;0.60;;;0.40;;
4409;SDS011;2218;51.408;7.208;2022-09-25T11:08:28;0.60;;;0.30;;
4409;SDS011;2218;51.408;7.208;2022-09-25T11:10:59;0.60;;;0.40;;
4409;SDS011;2218;51.408;7.208;2022-09-25T11:13:29;0.60;;;0.40;;
4409;SDS011;2218;51.408;7.208;2022-09-25T11:16:05;0.60;;;0.40;;
4409;SDS011;2218;51.408;7.208;2022-09-25T11:18:39;0.60;;;0.40;;
4409;SDS011;2218;51.408;7.208;2022-09-25T11:21:17;0.60;;;0.40;;
4409;SDS011;2218;51.408;7.208;2022-09-25T11:23:56;0.60;;;0.40;;
4409;SDS011;2218;51.408;7.208;2022-09-25T11:26:35;0.60;;;0.40;;
4409;SDS011;2218;51.408;7.208;2022-09-25T11:29:10;0.60;;;0.40;;
4409;SDS011;2218;51.408;7.208;2022-09-25T11:31:46;0.60;;;0.40;;
4409;SDS011;2218;51.408;7.208;2022-09-25T11:34:31;0.60;;;0.40;;
4409;SDS011;2218;51.408;7.208;2022-09-25T11:37:20;0.60;;;0.40;;
4409;SDS011;2218;51.408;7.208;2022-09-25T11:39:59;0.60;;;0.40;;
4409;SDS011;2218;51.408;7.208;2022-09-25T11:43:04;0.77;;;0.37;;
4409;SDS011;2218;51.408;7.208;2022-09-25T11:45:38;0.60;;;0.40;;
4409;SDS011;2218;51.408;7.208;2022-09-25T11:48:15;0.60;;;0.40;;
4409;SDS011;2218;51.408;7.208;2022-09-25T11:51:06;0.60;;;0.30;;
4409;SDS011;2218;51.408;7.208;2022-09-25T11:53:50;0.60;;;0.40;;
4409;SDS011;2218;51.408;7.208;2022-09-25T11:56:32;0.60;;;0.40;;
4409;SDS011;2218;51.408;7.208;2022-09-25T11:59:16;0.60;;;0.40;;
4409;SDS011;2218;51.408;7.208;2022-09-25T12:02:00;0.60;;;0.40;;
4409;SDS011;2218;51.408;7.208;2022-09-25T12:04:53;0.67;;;0.40;;
4409;SDS011;2218;51.408;7.208;2022-09-25T12:08:11;0.60;;;0.40;;
4409;SDS011;2218;51.408;7.208;2022-09-25T12:11:02;0.60;;;0.40;;
4409;SDS011;2218;51.408;7.208;2022-09-25T12:13:44;0.90;;;0.40;;
4409;SDS011;2218;51.408;7.208;2022-09-25T12:16:21;0.60;;;0.40;;
4409;SDS011;2218;51.408;7.208;2022-09-25T12:19:08;0.60;;;0.40;;
4409;SDS011;2218;51.408;7.208;2022-09-25T12:21:52;0.70;;;0.43;;
4409;SDS011;2218;51.408;7.208;2022-09-25T12:24:38;0.60;;;0.40;;
4409;SDS011;2218;51.408;7.208;2022-09-25T12:27:24;0.60;;;0.40;;
4409;SDS011;2218;51.408;7.208;2022-09-25T12:30:11;0.73;;;0.40;;
4409;SDS011;2218;51.408;7.208;2022-09-25T12:32:50;0.60;;;0.40;;
4409;SDS011;2218;51.408;7.208;2022-09-25T12:35:36;0.70;;;0.40;;
4409;SDS011;2218;51.408;7.208;2022-09-25T12:38:20;0.80;;;0.40;;
4409;SDS011;2218;51.408;7.208;2022-09-25T12:41:00;0.60;;;0.40;;
4409;SDS011;2218;51.408;7.208;2022-09-25T12:43:36;0.67;;;0.40;;
4409;SDS011;2218;51.408;7.208;2022-09-25T12:46:11;0.60;;;0.37;;
4409;SDS011;2218;51.408;7.208;2022-09-25T12:48:48;0.60;;;0.40;;
4409;SDS011;2218;51.408;7.208;2022-09-25T12:51:20;0.60;;;0.30;;
4409;SDS011;2218;51.408;7.208;2022-09-25T12:53:54;0.60;;;0.40;;
4409;SDS011;2218;51.408;7.208;2022-09-25T12:56:28;0.60;;;0.40;;
4409;SDS011;2218;51.408;7.208;2022-09-25T12:59:04;0.60;;;0.30;;
4409;SDS011;2218;51.408;7.208;2022-09-25T13:01:40;0.67;;;0.40;;
4409;SDS011;2218;51.408;7.208;2022-09-25T13:07:26;0.60;;;0.30;;
4409;SDS011;2218;51.408;7.208;2022-09-25T13:10:02;0.70;;;0.40;;
4409;SDS011;2218;51.408;7.208;2022-09-25T13:12:56;0.60;;;0.40;;
4409;SDS011;2218;51.408;7.208;2022-09-25T13:15:29;0.60;;;0.37;;
4409;SDS011;2218;51.408;7.208;2022-09-25T13:18:00;0.60;;;0.40;;
4409;SDS011;2218;51.408;7.208;2022-09-25T13:20:48;0.60;;;0.40;;
4409;SDS011;2218;51.408;7.208;2022-09-25T13:23:27;0.60;;;0.37;;
4409;SDS011;2218;51.408;7.208;2022-09-25T13:26:00;0.60;;;0.40;;
4409;SDS011;2218;51.408;7.208;2022-09-25T13:28:38;0.60;;;0.40;;
4409;SDS011;2218;51.408;7.208;2022-09-25T13:31:20;0.60;;;0.40;;
4409;SDS011;2218;51.408;7.208;2022-09-25T13:33:50;0.60;;;0.40;;
4409;SDS011;2218;51.408;7.208;2022-09-25T13:36:29;0.60;;;0.40;;
4409;SDS011;2218;51.408;7.208;2022-09-25T13:39:02;0.70;;;0.40;;
4409;SDS011;2218;51.408;7.208;2022-09-25T13:41:51;0.60;;;0.37;;
4409;SDS011;2218;51.408;7.208;2022-09-25T13:47:55;0.60;;;0.30;;
4409;SDS011;2218;51.408;7.208;2022-09-25T13:50:32;0.60;;;0.40;;
4409;SDS011;2218;51.408;7.208;2022-09-25T13:56:11;0.60;;;0.40;;
4409;SDS011;2218;51.408;7.208;2022-09-25T14:05:08;0.60;;;0.40;;
4409;SDS011;2218;51.408;7.208;2022-09-25T14:07:43;0.60;;;0.40;;
4409;SDS011;2218;51.408;7.208;2022-09-25T14:10:14;0.60;;;0.40;;
4409;SDS011;2218;51.408;7.208;2022-09-25T14:12:43;0.60;;;0.40;;
4409;SDS011;2218;51.408;7.208;2022-09-25T14:15:17;0.60;;;0.40;;
4409;SDS011;2218;51.408;7.208;2022-09-25T14:17:51;0.60;;;0.37;;
4409;SDS011;2218;51.408;7.208;2022-09-25T14:20:26;0.60;;;0.30;;
4409;SDS011;2218;51.408;7.208;2022-09-25T14:22:59;0.60;;;0.40;;
4409;SDS011;2218;51.408;7.208;2022-09-25T14:25:32;0.70;;;0.40;;
4409;SDS011;2218;51.408;7.208;2022-09-25T14:28:02;0.60;;;0.30;;
4409;SDS011;2218;51.408;7.208;2022-09-25T14:30:47;0.60;;;0.40;;
4409;SDS011;2218;51.408;7.208;2022-09-25T14:33:42;0.60;;;0.40;;
4409;SDS011;2218;51.408;7.208;2022-09-25T14:36:51;0.60;;;0.40;;
4409;SDS011;2218;51.408;7.208;2022-09-25T14:39:36;0.60;;;0.40;;
4409;SDS011;2218;51.408;7.208;2022-09-25T14:42:22;0.70;;;0.40;;
4409;SDS011;2218;51.408;7.208;2022-09-25T14:45:21;0.60;;;0.40;;
4409;SDS011;2218;51.408;7.208;2022-09-25T14:48:18;0.60;;;0.40;;
4409;SDS011;2218;51.408;7.208;2022-09-25T14:50:52;0.60;;;0.30;;
4409;SDS011;2218;51.408;7.208;2022-09-25T14:53:26;0.70;;;0.40;;
4409;SDS011;2218;51.408;7.208;2022-09-25T14:55:58;0.60;;;0.40;;
4409;SDS011;2218;51.408;7.208;2022-09-25T14:58:33;0.60;;;0.40;;
4409;SDS011;2218;51.408;7.208;2022-09-25T15:01:09;0.60;;;0.40;;
4409;SDS011;2218;51.408;7.208;2022-09-25T15:03:43;0.60;;;0.33;;
4409;SDS011;2218;51.408;7.208;2022-09-25T15:06:23;0.60;;;0.40;;
4409;SDS011;2218;51.408;7.208;2022-09-25T15:08:53;0.60;;;0.40;;
4409;SDS011;2218;51.408;7.208;2022-09-25T15:11:21;0.60;;;0.40;;
4409;SDS011;2218;51.408;7.208;2022-09-25T15:13:53;0.60;;;0.40;;
4409;SDS011;2218;51.408;7.208;2022-09-25T15:16:34;0.60;;;0.40;;
4409;SDS011;2218;51.408;7.208;2022-09-25T15:19:21;0.60;;;0.40;;
4409;SDS011;2218;51.408;7.208;2022-09-25T15:21:54;0.60;;;0.40;;
4409;SDS011;2218;51.408;7.208;2022-09-25T15:24:22;0.60;;;0.40;;
4409;SDS011;2218;51.408;7.208;2022-09-25T15:26:55;0.60;;;0.40;;
4409;SDS011;2218;51.408;7.208;2022-09-25T15:29:27;0.60;;;0.37;;
4409;SDS011;2218;51.408;7.208;2022-09-25T15:31:58;0.60;;;0.40;;
4409;SDS011;2218;51.408;7.208;2022-09-25T15:34:26;0.60;;;0.40;;
4409;SDS011;2218;51.408;7.208;2022-09-25T15:37:13;0.60;;;0.40;;
4409;SDS011;2218;51.408;7.208;2022-09-25T15:39:53;0.60;;;0.40;;
4409;SDS011;2218;51.408;7.208;2022-09-25T15:42:21;0.60;;;0.40;;
4409;SDS011;2218;51.408;7.208;2022-09-25T15:44:48;0.60;;;0.40;;
4409;SDS011;2218;51.408;7.208;2022-09-25T15:47:42;0.60;;;0.37;;
4409;SDS011;2218;51.408;7.208;2022-09-25T15:50:18;0.60;;;0.40;;
4409;SDS011;2218;51.408;7.208;2022-09-25T15:52:52;0.80;;;0.40;;
4409;SDS011;2218;51.408;7.208;2022-09-25T15:55:22;0.80;;;0.40;;
4409;SDS011;2218;51.408;7.208;2022-09-25T15:57:51;0.70;;;0.40;;
4409;SDS011;2218;51.408;7.208;2022-09-25T16:00:21;0.60;;;0.30;;
4409;SDS011;2218;51.408;7.208;2022-09-25T16:03:11;0.60;;;0.40;;
4409;SDS011;2218;51.408;7.208;2022-09-25T16:06:03;0.60;;;0.40;;
4409;SDS011;2218;51.408;7.208;2022-09-25T16:08:33;0.60;;;0.30;;
4409;SDS011;2218;51.408;7.208;2022-09-25T16:11:03;0.60;;;0.40;;
4409;SDS011;2218;51.408;7.208;2022-09-25T16:13:41;0.60;;;0.40;;
4409;SDS011;2218;51.408;7.208;2022-09-25T16:16:16;0.60;;;0.30;;
4409;SDS011;2218;51.408;7.208;2022-09-25T16:18:48;0.60;;;0.40;;